sensor_id;sensor_type;location;lat;lon;timestamp;P1;durP1;ratioP1;P2;durP2;ratioP2
46090;SDS011;31826;53.572;10.170;2024-03-02T00:01:41;27.80;;;12.85;;
46090;SDS011;31826;53.572;10.170;2024-03-02T00:04:07;33.40;;;14.30;;
46090;SDS011;31826;53.572;10.170;2024-03-02T00:06:33;30.07;;;14.07;;
46090;SDS011;31826;53.572;10.170;2024-03-02T00:08:59;31.05;;;14.32;;
46090;SDS011;31826;53.572;10.170;2024-03-02T00:11:25;31.92;;;14.20;;
46090;SDS011;31826;53.572;10.170;2024-03-02T00:13:52;30.08;;;14.23;;
46090;SDS011;31826;53.572;10.170;2024-03-02T00:16:19;29.38;;;13.85;;
46090;SDS011;31826;53.572;10.170;2024-03-02T00:18:45;31.85;;;13.98;;
46090;SDS011;31826;53.572;10.170;2024-03-02T00:21:11;36.55;;;14.95;;
46090;SDS011;31826;53.572;10.170;2024-03-02T00:23:39;31.17;;;14.80;;
46090;SDS011;31826;53.572;10.170;2024-03-02T00:26:05;31.85;;;15.15;;
46090;SDS011;31826;53.572;10.170;2024-03-02T00:28:31;34.08;;;14.68;;
46090;SDS011;31826;53.572;10.170;2024-03-02T00:33:42;31.83;;;14.43;;
46090;SDS011;31826;53.572;10.170;2024-03-02T00:36:12;34.78;;;15.35;;
46090;SDS011;31826;53.572;10.170;2024-03-02T00:38:47;34.13;;;14.50;;
46090;SDS011;31826;53.572;10.170;2024-03-02T00:41:30;34.28;;;14.77;;
46090;SDS011;31826;53.572;10.170;2024-03-02T00:46:34;35.38;;;14.80;;
46090;SDS011;31826;53.572;10.170;2024-03-02T00:49:01;35.05;;;15.98;;
46090;SDS011;31826;53.572;10.170;2024-03-02T00:51:29;35.78;;;16.05;;
46090;SDS011;31826;53.572;10.170;2024-03-02T00:53:58;32.55;;;15.02;;
46090;SDS011;31826;53.572;10.170;2024-03-02T00:56:26;33.85;;;15.10;;
46090;SDS011;31826;53.572;10.170;2024-03-02T00:58:52;35.33;;;15.93;;
46090;SDS011;31826;53.572;10.170;2024-03-02T01:01:18;37.13;;;16.20;;
46090;SDS011;31826;53.572;10.170;2024-03-02T01:03:47;34.17;;;15.75;;
46090;SDS011;31826;53.572;10.170;2024-03-02T01:06:16;36.33;;;16.30;;
46090;SDS011;31826;53.572;10.170;2024-03-02T01:08:42;38.35;;;16.52;;
46090;SDS011;31826;53.572;10.170;2024-03-02T01:11:09;36.60;;;16.40;;
46090;SDS011;31826;53.572;10.170;2024-03-02T01:13:35;36.55;;;16.63;;
46090;SDS011;31826;53.572;10.170;2024-03-02T01:16:01;34.92;;;16.23;;
46090;SDS011;31826;53.572;10.170;2024-03-02T01:18:27;39.83;;;16.85;;
46090;SDS011;31826;53.572;10.170;2024-03-02T01:20:53;39.20;;;16.08;;
46090;SDS011;31826;53.572;10.170;2024-03-02T01:23:22;34.30;;;15.30;;
46090;SDS011;31826;53.572;10.170;2024-03-02T01:25:48;39.13;;;16.10;;
46090;SDS011;31826;53.572;10.170;2024-03-02T01:28:14;37.75;;;16.40;;
46090;SDS011;31826;53.572;10.170;2024-03-02T01:30:40;35.22;;;15.40;;
46090;SDS011;31826;53.572;10.170;2024-03-02T01:33:06;36.92;;;16.02;;
46090;SDS011;31826;53.572;10.170;2024-03-02T01:35:32;36.78;;;16.90;;
46090;SDS011;31826;53.572;10.170;2024-03-02T01:37:58;36.35;;;16.60;;
46090;SDS011;31826;53.572;10.170;2024-03-02T01:40:23;34.70;;;16.15;;
46090;SDS011;31826;53.572;10.170;2024-03-02T01:42:52;40.42;;;17.50;;
46090;SDS011;31826;53.572;10.170;2024-03-02T01:45:27;36.47;;;17.20;;
46090;SDS011;31826;53.572;10.170;2024-03-02T01:47:53;39.10;;;16.70;;
46090;SDS011;31826;53.572;10.170;2024-03-02T01:50:29;37.90;;;16.73;;
46090;SDS011;31826;53.572;10.170;2024-03-02T01:52:58;37.72;;;16.15;;
46090;SDS011;31826;53.572;10.170;2024-03-02T01:55:25;39.20;;;16.67;;
46090;SDS011;31826;53.572;10.170;2024-03-02T01:57:52;35.13;;;16.20;;
46090;SDS011;31826;53.572;10.170;2024-03-02T02:00:19;36.35;;;16.13;;
46090;SDS011;31826;53.572;10.170;2024-03-02T02:02:46;35.78;;;16.42;;
46090;SDS011;31826;53.572;10.170;2024-03-02T02:05:13;38.60;;;16.20;;
46090;SDS011;31826;53.572;10.170;2024-03-02T02:07:40;39.70;;;16.25;;
46090;SDS011;31826;53.572;10.170;2024-03-02T02:10:07;38.20;;;16.70;;
46090;SDS011;31826;53.572;10.170;2024-03-02T02:12:33;36.63;;;16.50;;
46090;SDS011;31826;53.572;10.170;2024-03-02T02:14:58;38.97;;;17.15;;
46090;SDS011;31826;53.572;10.170;2024-03-02T02:17:24;37.30;;;17.58;;
46090;SDS011;31826;53.572;10.170;2024-03-02T02:19:50;38.72;;;17.83;;
46090;SDS011;31826;53.572;10.170;2024-03-02T02:22:15;42.10;;;18.03;;
46090;SDS011;31826;53.572;10.170;2024-03-02T02:24:41;40.10;;;17.53;;
46090;SDS011;31826;53.572;10.170;2024-03-02T02:27:07;41.03;;;17.88;;
46090;SDS011;31826;53.572;10.170;2024-03-02T02:29:34;41.70;;;18.27;;
46090;SDS011;31826;53.572;10.170;2024-03-02T02:32:00;41.15;;;17.48;;
46090;SDS011;31826;53.572;10.170;2024-03-02T02:34:25;39.23;;;16.73;;
46090;SDS011;31826;53.572;10.170;2024-03-02T02:36:51;39.60;;;16.47;;
46090;SDS011;31826;53.572;10.170;2024-03-02T02:39:18;38.00;;;16.80;;
46090;SDS011;31826;53.572;10.170;2024-03-02T02:41:45;39.13;;;16.25;;
46090;SDS011;31826;53.572;10.170;2024-03-02T02:44:11;39.67;;;16.80;;
46090;SDS011;31826;53.572;10.170;2024-03-02T02:46:38;40.13;;;17.43;;
46090;SDS011;31826;53.572;10.170;2024-03-02T02:49:04;36.53;;;15.98;;
46090;SDS011;31826;53.572;10.170;2024-03-02T02:51:30;38.40;;;16.65;;
46090;SDS011;31826;53.572;10.170;2024-03-02T02:53:56;37.50;;;15.87;;
46090;SDS011;31826;53.572;10.170;2024-03-02T02:56:21;36.22;;;16.63;;
46090;SDS011;31826;53.572;10.170;2024-03-02T02:58:47;34.83;;;15.85;;
46090;SDS011;31826;53.572;10.170;2024-03-02T03:01:13;38.22;;;16.38;;
46090;SDS011;31826;53.572;10.170;2024-03-02T03:03:40;35.05;;;16.52;;
46090;SDS011;31826;53.572;10.170;2024-03-02T03:06:06;37.40;;;16.10;;
46090;SDS011;31826;53.572;10.170;2024-03-02T03:08:31;37.40;;;17.25;;
46090;SDS011;31826;53.572;10.170;2024-03-02T03:10:57;36.55;;;16.00;;
46090;SDS011;31826;53.572;10.170;2024-03-02T03:13:23;37.70;;;16.40;;
46090;SDS011;31826;53.572;10.170;2024-03-02T03:15:48;37.88;;;16.40;;
46090;SDS011;31826;53.572;10.170;2024-03-02T03:18:14;39.17;;;16.67;;
46090;SDS011;31826;53.572;10.170;2024-03-02T03:20:40;38.97;;;16.83;;
46090;SDS011;31826;53.572;10.170;2024-03-02T03:23:05;38.40;;;16.57;;
46090;SDS011;31826;53.572;10.170;2024-03-02T03:25:31;36.15;;;16.58;;
46090;SDS011;31826;53.572;10.170;2024-03-02T03:27:57;38.88;;;17.38;;
46090;SDS011;31826;53.572;10.170;2024-03-02T03:30:22;36.85;;;16.77;;
46090;SDS011;31826;53.572;10.170;2024-03-02T03:32:48;39.05;;;18.15;;
46090;SDS011;31826;53.572;10.170;2024-03-02T03:35:14;35.08;;;16.63;;
46090;SDS011;31826;53.572;10.170;2024-03-02T03:37:41;35.25;;;16.17;;
46090;SDS011;31826;53.572;10.170;2024-03-02T03:40:07;36.67;;;16.52;;
46090;SDS011;31826;53.572;10.170;2024-03-02T03:42:36;35.15;;;16.15;;
46090;SDS011;31826;53.572;10.170;2024-03-02T03:45:05;40.35;;;17.25;;
46090;SDS011;31826;53.572;10.170;2024-03-02T03:47:32;37.53;;;17.02;;
46090;SDS011;31826;53.572;10.170;2024-03-02T03:49:57;35.67;;;16.25;;
46090;SDS011;31826;53.572;10.170;2024-03-02T03:52:23;37.43;;;16.67;;
46090;SDS011;31826;53.572;10.170;2024-03-02T03:54:49;36.72;;;16.98;;
46090;SDS011;31826;53.572;10.170;2024-03-02T03:57:15;39.05;;;16.70;;
46090;SDS011;31826;53.572;10.170;2024-03-02T03:59:41;34.58;;;15.82;;
46090;SDS011;31826;53.572;10.170;2024-03-02T04:02:07;34.10;;;16.10;;
46090;SDS011;31826;53.572;10.170;2024-03-02T04:04:34;37.13;;;16.50;;
46090;SDS011;31826;53.572;10.170;2024-03-02T04:07:00;36.50;;;15.70;;
46090;SDS011;31826;53.572;10.170;2024-03-02T04:09:26;34.13;;;15.65;;
46090;SDS011;31826;53.572;10.170;2024-03-02T04:11:52;32.33;;;15.10;;
46090;SDS011;31826;53.572;10.170;2024-03-02T04:14:18;34.40;;;15.45;;
46090;SDS011;31826;53.572;10.170;2024-03-02T04:16:43;36.92;;;15.77;;
46090;SDS011;31826;53.572;10.170;2024-03-02T04:19:09;34.28;;;16.38;;
46090;SDS011;31826;53.572;10.170;2024-03-02T04:21:35;35.72;;;15.95;;
46090;SDS011;31826;53.572;10.170;2024-03-02T04:24:01;30.27;;;14.57;;
46090;SDS011;31826;53.572;10.170;2024-03-02T04:26:26;33.25;;;15.00;;
46090;SDS011;31826;53.572;10.170;2024-03-02T04:28:52;33.72;;;15.15;;
46090;SDS011;31826;53.572;10.170;2024-03-02T04:31:19;31.75;;;14.60;;
46090;SDS011;31826;53.572;10.170;2024-03-02T04:33:45;31.23;;;14.63;;
46090;SDS011;31826;53.572;10.170;2024-03-02T04:36:10;33.40;;;15.60;;
46090;SDS011;31826;53.572;10.170;2024-03-02T04:38:37;33.40;;;15.30;;
46090;SDS011;31826;53.572;10.170;2024-03-02T04:41:04;32.85;;;16.30;;
46090;SDS011;31826;53.572;10.170;2024-03-02T04:43:33;31.80;;;14.80;;
46090;SDS011;31826;53.572;10.170;2024-03-02T04:46:00;34.33;;;15.57;;
46090;SDS011;31826;53.572;10.170;2024-03-02T04:48:26;35.45;;;15.15;;
46090;SDS011;31826;53.572;10.170;2024-03-02T04:50:52;31.40;;;15.48;;
46090;SDS011;31826;53.572;10.170;2024-03-02T04:53:18;32.00;;;15.63;;
46090;SDS011;31826;53.572;10.170;2024-03-02T04:55:43;34.30;;;15.88;;
46090;SDS011;31826;53.572;10.170;2024-03-02T04:58:09;32.97;;;14.73;;
46090;SDS011;31826;53.572;10.170;2024-03-02T05:00:35;31.17;;;14.48;;
46090;SDS011;31826;53.572;10.170;2024-03-02T05:03:01;31.23;;;15.13;;
46090;SDS011;31826;53.572;10.170;2024-03-02T05:05:27;38.38;;;15.27;;
46090;SDS011;31826;53.572;10.170;2024-03-02T05:07:53;31.75;;;14.00;;
46090;SDS011;31826;53.572;10.170;2024-03-02T05:10:18;31.00;;;15.20;;
46090;SDS011;31826;53.572;10.170;2024-03-02T05:12:44;31.77;;;14.40;;
46090;SDS011;31826;53.572;10.170;2024-03-02T05:15:10;32.50;;;15.23;;
46090;SDS011;31826;53.572;10.170;2024-03-02T05:17:37;29.88;;;14.23;;
46090;SDS011;31826;53.572;10.170;2024-03-02T05:20:04;33.47;;;15.15;;
46090;SDS011;31826;53.572;10.170;2024-03-02T05:22:31;29.63;;;13.70;;
46090;SDS011;31826;53.572;10.170;2024-03-02T05:24:56;27.70;;;14.13;;
46090;SDS011;31826;53.572;10.170;2024-03-02T05:27:24;34.25;;;14.27;;
46090;SDS011;31826;53.572;10.170;2024-03-02T05:29:50;31.15;;;15.02;;
46090;SDS011;31826;53.572;10.170;2024-03-02T05:32:15;31.10;;;15.02;;
46090;SDS011;31826;53.572;10.170;2024-03-02T05:34:41;29.20;;;14.20;;
46090;SDS011;31826;53.572;10.170;2024-03-02T05:37:07;30.93;;;14.37;;
46090;SDS011;31826;53.572;10.170;2024-03-02T05:39:32;31.07;;;14.47;;
46090;SDS011;31826;53.572;10.170;2024-03-02T05:41:58;29.55;;;14.40;;
46090;SDS011;31826;53.572;10.170;2024-03-02T05:44:24;28.33;;;14.05;;
46090;SDS011;31826;53.572;10.170;2024-03-02T05:46:49;28.05;;;13.40;;
46090;SDS011;31826;53.572;10.170;2024-03-02T05:49:15;30.02;;;13.95;;
46090;SDS011;31826;53.572;10.170;2024-03-02T05:51:41;29.55;;;14.00;;
46090;SDS011;31826;53.572;10.170;2024-03-02T05:54:06;31.10;;;14.20;;
46090;SDS011;31826;53.572;10.170;2024-03-02T05:56:32;33.07;;;15.03;;
46090;SDS011;31826;53.572;10.170;2024-03-02T05:58:58;35.77;;;14.80;;
46090;SDS011;31826;53.572;10.170;2024-03-02T06:01:44;36.25;;;15.60;;
46090;SDS011;31826;53.572;10.170;2024-03-02T06:04:17;32.00;;;14.10;;
46090;SDS011;31826;53.572;10.170;2024-03-02T06:06:43;33.75;;;13.95;;
46090;SDS011;31826;53.572;10.170;2024-03-02T06:09:09;28.50;;;13.95;;
46090;SDS011;31826;53.572;10.170;2024-03-02T06:11:39;30.50;;;14.50;;
46090;SDS011;31826;53.572;10.170;2024-03-02T06:14:06;31.15;;;14.82;;
46090;SDS011;31826;53.572;10.170;2024-03-02T06:16:33;33.30;;;15.35;;
46090;SDS011;31826;53.572;10.170;2024-03-02T06:18:59;32.30;;;15.18;;
46090;SDS011;31826;53.572;10.170;2024-03-02T06:21:25;32.03;;;15.70;;
46090;SDS011;31826;53.572;10.170;2024-03-02T06:23:52;31.92;;;14.70;;
46090;SDS011;31826;53.572;10.170;2024-03-02T06:26:18;32.40;;;15.48;;
46090;SDS011;31826;53.572;10.170;2024-03-02T06:28:44;34.75;;;16.05;;
46090;SDS011;31826;53.572;10.170;2024-03-02T06:31:10;35.65;;;16.63;;
46090;SDS011;31826;53.572;10.170;2024-03-02T06:33:36;35.50;;;15.60;;
46090;SDS011;31826;53.572;10.170;2024-03-02T06:36:02;39.28;;;16.00;;
46090;SDS011;31826;53.572;10.170;2024-03-02T06:38:28;33.10;;;15.85;;
46090;SDS011;31826;53.572;10.170;2024-03-02T06:40:53;31.90;;;15.07;;
46090;SDS011;31826;53.572;10.170;2024-03-02T06:43:22;32.55;;;15.68;;
46090;SDS011;31826;53.572;10.170;2024-03-02T06:45:48;33.08;;;15.27;;
46090;SDS011;31826;53.572;10.170;2024-03-02T06:48:17;34.95;;;15.52;;
46090;SDS011;31826;53.572;10.170;2024-03-02T06:50:47;30.80;;;15.23;;
46090;SDS011;31826;53.572;10.170;2024-03-02T06:53:13;30.37;;;14.50;;
46090;SDS011;31826;53.572;10.170;2024-03-02T06:55:39;30.20;;;14.07;;
46090;SDS011;31826;53.572;10.170;2024-03-02T06:58:04;36.65;;;15.48;;
46090;SDS011;31826;53.572;10.170;2024-03-02T07:00:30;33.70;;;14.83;;
46090;SDS011;31826;53.572;10.170;2024-03-02T07:02:56;32.73;;;15.07;;
46090;SDS011;31826;53.572;10.170;2024-03-02T07:05:21;30.27;;;13.70;;
46090;SDS011;31826;53.572;10.170;2024-03-02T07:07:47;32.58;;;15.00;;
46090;SDS011;31826;53.572;10.170;2024-03-02T07:10:13;32.05;;;15.02;;
46090;SDS011;31826;53.572;10.170;2024-03-02T07:12:39;31.33;;;14.95;;
46090;SDS011;31826;53.572;10.170;2024-03-02T07:15:04;29.90;;;13.93;;
46090;SDS011;31826;53.572;10.170;2024-03-02T07:17:31;33.28;;;14.20;;
46090;SDS011;31826;53.572;10.170;2024-03-02T07:19:57;30.87;;;14.47;;
46090;SDS011;31826;53.572;10.170;2024-03-02T07:22:23;30.63;;;14.80;;
46090;SDS011;31826;53.572;10.170;2024-03-02T07:24:49;32.75;;;14.68;;
46090;SDS011;31826;53.572;10.170;2024-03-02T07:27:15;29.33;;;13.30;;
46090;SDS011;31826;53.572;10.170;2024-03-02T07:29:42;31.02;;;15.23;;
46090;SDS011;31826;53.572;10.170;2024-03-02T07:32:08;31.73;;;15.18;;
46090;SDS011;31826;53.572;10.170;2024-03-02T07:34:35;30.20;;;14.57;;
46090;SDS011;31826;53.572;10.170;2024-03-02T07:37:01;29.88;;;13.80;;
46090;SDS011;31826;53.572;10.170;2024-03-02T07:39:27;33.53;;;15.48;;
46090;SDS011;31826;53.572;10.170;2024-03-02T07:41:54;28.40;;;13.23;;
46090;SDS011;31826;53.572;10.170;2024-03-02T07:44:20;30.75;;;13.88;;
46090;SDS011;31826;53.572;10.170;2024-03-02T07:46:46;33.22;;;14.32;;
46090;SDS011;31826;53.572;10.170;2024-03-02T07:49:12;28.90;;;14.38;;
46090;SDS011;31826;53.572;10.170;2024-03-02T07:51:39;27.88;;;13.68;;
46090;SDS011;31826;53.572;10.170;2024-03-02T07:54:04;30.98;;;14.15;;
46090;SDS011;31826;53.572;10.170;2024-03-02T07:56:30;29.05;;;12.90;;
46090;SDS011;31826;53.572;10.170;2024-03-02T07:58:56;30.07;;;13.53;;
46090;SDS011;31826;53.572;10.170;2024-03-02T08:01:26;27.73;;;13.38;;
46090;SDS011;31826;53.572;10.170;2024-03-02T08:03:54;27.95;;;12.70;;
46090;SDS011;31826;53.572;10.170;2024-03-02T08:06:22;30.67;;;13.20;;
46090;SDS011;31826;53.572;10.170;2024-03-02T08:08:47;26.37;;;12.57;;
46090;SDS011;31826;53.572;10.170;2024-03-02T08:11:13;26.77;;;12.37;;
46090;SDS011;31826;53.572;10.170;2024-03-02T08:13:39;27.45;;;12.48;;
46090;SDS011;31826;53.572;10.170;2024-03-02T08:16:05;27.73;;;12.18;;
46090;SDS011;31826;53.572;10.170;2024-03-02T08:18:34;30.07;;;12.93;;
46090;SDS011;31826;53.572;10.170;2024-03-02T08:21:00;24.40;;;11.50;;
46090;SDS011;31826;53.572;10.170;2024-03-02T08:23:25;25.90;;;11.73;;
46090;SDS011;31826;53.572;10.170;2024-03-02T08:25:51;24.20;;;11.77;;
46090;SDS011;31826;53.572;10.170;2024-03-02T08:28:17;25.20;;;11.47;;
46090;SDS011;31826;53.572;10.170;2024-03-02T08:30:43;24.77;;;11.88;;
46090;SDS011;31826;53.572;10.170;2024-03-02T08:33:08;24.00;;;11.38;;
46090;SDS011;31826;53.572;10.170;2024-03-02T08:35:34;24.55;;;11.23;;
46090;SDS011;31826;53.572;10.170;2024-03-02T08:38:03;23.65;;;11.27;;
46090;SDS011;31826;53.572;10.170;2024-03-02T08:40:29;24.58;;;12.07;;
46090;SDS011;31826;53.572;10.170;2024-03-02T08:42:55;25.67;;;12.13;;
46090;SDS011;31826;53.572;10.170;2024-03-02T08:45:21;22.25;;;10.55;;
46090;SDS011;31826;53.572;10.170;2024-03-02T08:47:47;24.53;;;11.50;;
46090;SDS011;31826;53.572;10.170;2024-03-02T08:50:13;25.75;;;12.25;;
46090;SDS011;31826;53.572;10.170;2024-03-02T08:52:39;25.40;;;11.85;;
46090;SDS011;31826;53.572;10.170;2024-03-02T08:55:05;24.63;;;11.73;;
46090;SDS011;31826;53.572;10.170;2024-03-02T08:57:32;24.95;;;11.68;;
46090;SDS011;31826;53.572;10.170;2024-03-02T08:59:58;24.88;;;11.27;;
46090;SDS011;31826;53.572;10.170;2024-03-02T09:02:24;27.15;;;12.30;;
46090;SDS011;31826;53.572;10.170;2024-03-02T09:04:50;26.13;;;12.10;;
46090;SDS011;31826;53.572;10.170;2024-03-02T09:07:16;25.17;;;11.23;;
46090;SDS011;31826;53.572;10.170;2024-03-02T09:09:42;28.57;;;12.10;;
46090;SDS011;31826;53.572;10.170;2024-03-02T09:12:08;25.17;;;11.77;;
46090;SDS011;31826;53.572;10.170;2024-03-02T09:14:34;25.05;;;11.98;;
46090;SDS011;31826;53.572;10.170;2024-03-02T09:17:02;26.20;;;12.15;;
46090;SDS011;31826;53.572;10.170;2024-03-02T09:19:28;24.95;;;11.57;;
46090;SDS011;31826;53.572;10.170;2024-03-02T09:21:54;23.40;;;11.40;;
46090;SDS011;31826;53.572;10.170;2024-03-02T09:24:21;25.77;;;11.80;;
46090;SDS011;31826;53.572;10.170;2024-03-02T09:26:47;27.60;;;11.98;;
46090;SDS011;31826;53.572;10.170;2024-03-02T09:29:12;27.97;;;12.53;;
46090;SDS011;31826;53.572;10.170;2024-03-02T09:31:39;24.70;;;11.90;;
46090;SDS011;31826;53.572;10.170;2024-03-02T09:34:06;27.25;;;12.32;;
46090;SDS011;31826;53.572;10.170;2024-03-02T09:36:32;23.33;;;11.80;;
46090;SDS011;31826;53.572;10.170;2024-03-02T09:38:58;23.43;;;11.30;;
46090;SDS011;31826;53.572;10.170;2024-03-02T09:41:23;22.75;;;11.43;;
46090;SDS011;31826;53.572;10.170;2024-03-02T09:43:49;24.02;;;10.38;;
46090;SDS011;31826;53.572;10.170;2024-03-02T09:46:16;22.45;;;10.55;;
46090;SDS011;31826;53.572;10.170;2024-03-02T09:48:43;24.77;;;10.68;;
46090;SDS011;31826;53.572;10.170;2024-03-02T09:51:09;23.08;;;11.43;;
46090;SDS011;31826;53.572;10.170;2024-03-02T09:53:36;21.15;;;10.82;;
46090;SDS011;31826;53.572;10.170;2024-03-02T09:56:02;24.98;;;10.90;;
46090;SDS011;31826;53.572;10.170;2024-03-02T09:58:29;22.55;;;10.25;;
46090;SDS011;31826;53.572;10.170;2024-03-02T10:00:55;21.77;;;10.63;;
46090;SDS011;31826;53.572;10.170;2024-03-02T10:03:22;20.50;;;10.63;;
46090;SDS011;31826;53.572;10.170;2024-03-02T10:05:51;23.08;;;10.82;;
46090;SDS011;31826;53.572;10.170;2024-03-02T10:08:16;22.50;;;9.90;;
46090;SDS011;31826;53.572;10.170;2024-03-02T10:10:42;21.65;;;10.38;;
46090;SDS011;31826;53.572;10.170;2024-03-02T10:13:09;20.55;;;9.93;;
46090;SDS011;31826;53.572;10.170;2024-03-02T10:15:36;19.73;;;9.35;;
46090;SDS011;31826;53.572;10.170;2024-03-02T10:18:09;20.02;;;9.15;;
46090;SDS011;31826;53.572;10.170;2024-03-02T10:20:40;21.52;;;9.98;;
46090;SDS011;31826;53.572;10.170;2024-03-02T10:23:09;18.70;;;8.90;;
46090;SDS011;31826;53.572;10.170;2024-03-02T10:25:36;16.77;;;7.35;;
46090;SDS011;31826;53.572;10.170;2024-03-02T10:28:02;20.73;;;9.00;;
46090;SDS011;31826;53.572;10.170;2024-03-02T10:30:31;19.75;;;8.75;;
46090;SDS011;31826;53.572;10.170;2024-03-02T10:32:56;17.33;;;8.57;;
46090;SDS011;31826;53.572;10.170;2024-03-02T10:35:22;18.97;;;9.03;;
46090;SDS011;31826;53.572;10.170;2024-03-02T10:37:54;18.83;;;8.82;;
46090;SDS011;31826;53.572;10.170;2024-03-02T10:40:23;17.13;;;8.30;;
46090;SDS011;31826;53.572;10.170;2024-03-02T10:42:49;16.05;;;7.40;;
46090;SDS011;31826;53.572;10.170;2024-03-02T10:45:17;16.92;;;7.63;;
46090;SDS011;31826;53.572;10.170;2024-03-02T10:47:45;16.92;;;8.10;;
46090;SDS011;31826;53.572;10.170;2024-03-02T10:50:12;16.95;;;7.57;;
46090;SDS011;31826;53.572;10.170;2024-03-02T10:52:38;16.85;;;7.63;;
46090;SDS011;31826;53.572;10.170;2024-03-02T10:55:04;15.40;;;7.80;;
46090;SDS011;31826;53.572;10.170;2024-03-02T10:57:36;16.35;;;7.50;;
46090;SDS011;31826;53.572;10.170;2024-03-02T11:00:20;16.48;;;8.00;;
46090;SDS011;31826;53.572;10.170;2024-03-02T11:02:52;16.83;;;8.05;;
46090;SDS011;31826;53.572;10.170;2024-03-02T11:05:28;16.45;;;7.88;;
46090;SDS011;31826;53.572;10.170;2024-03-02T11:08:01;16.08;;;8.43;;
46090;SDS011;31826;53.572;10.170;2024-03-02T11:10:35;16.65;;;8.25;;
46090;SDS011;31826;53.572;10.170;2024-03-02T11:13:11;17.42;;;8.35;;
46090;SDS011;31826;53.572;10.170;2024-03-02T11:15:37;16.60;;;8.15;;
46090;SDS011;31826;53.572;10.170;2024-03-02T11:18:06;16.17;;;8.07;;
46090;SDS011;31826;53.572;10.170;2024-03-02T11:20:37;15.63;;;7.38;;
46090;SDS011;31826;53.572;10.170;2024-03-02T11:23:05;17.10;;;7.68;;
46090;SDS011;31826;53.572;10.170;2024-03-02T11:25:32;15.95;;;7.95;;
46090;SDS011;31826;53.572;10.170;2024-03-02T11:28:01;14.67;;;7.03;;
46090;SDS011;31826;53.572;10.170;2024-03-02T11:33:08;15.73;;;7.65;;
46090;SDS011;31826;53.572;10.170;2024-03-02T11:35:35;17.60;;;7.33;;
46090;SDS011;31826;53.572;10.170;2024-03-02T11:38:04;17.42;;;7.38;;
46090;SDS011;31826;53.572;10.170;2024-03-02T11:40:32;18.17;;;7.47;;
46090;SDS011;31826;53.572;10.170;2024-03-02T11:42:59;14.27;;;7.10;;
46090;SDS011;31826;53.572;10.170;2024-03-02T11:45:28;15.40;;;6.82;;
46090;SDS011;31826;53.572;10.170;2024-03-02T11:47:55;16.73;;;7.25;;
46090;SDS011;31826;53.572;10.170;2024-03-02T11:50:31;16.67;;;7.38;;
46090;SDS011;31826;53.572;10.170;2024-03-02T11:53:02;15.27;;;6.80;;
46090;SDS011;31826;53.572;10.170;2024-03-02T11:55:36;15.27;;;6.50;;
46090;SDS011;31826;53.572;10.170;2024-03-02T11:58:03;14.73;;;6.77;;
46090;SDS011;31826;53.572;10.170;2024-03-02T12:00:29;16.50;;;6.70;;
46090;SDS011;31826;53.572;10.170;2024-03-02T12:03:04;14.33;;;7.10;;
46090;SDS011;31826;53.572;10.170;2024-03-02T12:05:31;15.48;;;6.75;;
46090;SDS011;31826;53.572;10.170;2024-03-02T12:08:01;16.77;;;7.40;;
46090;SDS011;31826;53.572;10.170;2024-03-02T12:10:37;14.73;;;7.00;;
46090;SDS011;31826;53.572;10.170;2024-03-02T12:13:03;16.15;;;7.43;;
46090;SDS011;31826;53.572;10.170;2024-03-02T12:15:36;16.90;;;7.25;;
46090;SDS011;31826;53.572;10.170;2024-03-02T12:18:03;17.98;;;7.20;;
46090;SDS011;31826;53.572;10.170;2024-03-02T12:20:30;15.67;;;7.13;;
46090;SDS011;31826;53.572;10.170;2024-03-02T12:23:00;15.13;;;7.78;;
46090;SDS011;31826;53.572;10.170;2024-03-02T12:25:28;16.10;;;7.47;;
46090;SDS011;31826;53.572;10.170;2024-03-02T12:27:55;14.95;;;7.07;;
46090;SDS011;31826;53.572;10.170;2024-03-02T12:30:26;16.10;;;7.32;;
46090;SDS011;31826;53.572;10.170;2024-03-02T12:32:54;15.98;;;7.95;;
46090;SDS011;31826;53.572;10.170;2024-03-02T12:35:19;15.55;;;6.85;;
46090;SDS011;31826;53.572;10.170;2024-03-02T12:37:49;15.97;;;7.17;;
46090;SDS011;31826;53.572;10.170;2024-03-02T12:40:16;16.38;;;7.38;;
46090;SDS011;31826;53.572;10.170;2024-03-02T12:42:44;16.58;;;7.75;;
46090;SDS011;31826;53.572;10.170;2024-03-02T12:45:10;16.65;;;7.10;;
46090;SDS011;31826;53.572;10.170;2024-03-02T12:47:37;14.43;;;7.13;;
46090;SDS011;31826;53.572;10.170;2024-03-02T12:50:04;14.23;;;6.60;;
46090;SDS011;31826;53.572;10.170;2024-03-02T12:52:30;15.60;;;6.57;;
46090;SDS011;31826;53.572;10.170;2024-03-02T12:54:59;13.77;;;6.57;;
46090;SDS011;31826;53.572;10.170;2024-03-02T12:57:33;15.40;;;6.18;;
46090;SDS011;31826;53.572;10.170;2024-03-02T12:59:59;14.73;;;6.65;;
46090;SDS011;31826;53.572;10.170;2024-03-02T13:02:30;14.25;;;6.40;;
46090;SDS011;31826;53.572;10.170;2024-03-02T13:04:57;14.50;;;6.45;;
46090;SDS011;31826;53.572;10.170;2024-03-02T13:07:23;15.10;;;7.07;;
46090;SDS011;31826;53.572;10.170;2024-03-02T13:09:50;15.05;;;6.85;;
46090;SDS011;31826;53.572;10.170;2024-03-02T13:12:17;13.88;;;6.55;;
46090;SDS011;31826;53.572;10.170;2024-03-02T13:14:44;13.40;;;6.32;;
46090;SDS011;31826;53.572;10.170;2024-03-02T13:17:12;14.73;;;6.38;;
46090;SDS011;31826;53.572;10.170;2024-03-02T13:19:43;13.75;;;6.75;;
46090;SDS011;31826;53.572;10.170;2024-03-02T13:22:19;15.77;;;6.68;;
46090;SDS011;31826;53.572;10.170;2024-03-02T13:24:45;15.98;;;6.70;;
46090;SDS011;31826;53.572;10.170;2024-03-02T13:27:10;14.52;;;6.35;;
46090;SDS011;31826;53.572;10.170;2024-03-02T13:29:37;14.50;;;6.45;;
46090;SDS011;31826;53.572;10.170;2024-03-02T13:32:03;13.40;;;5.95;;
46090;SDS011;31826;53.572;10.170;2024-03-02T13:34:29;16.13;;;7.23;;
46090;SDS011;31826;53.572;10.170;2024-03-02T13:36:54;16.10;;;7.10;;
46090;SDS011;31826;53.572;10.170;2024-03-02T13:39:20;14.13;;;6.65;;
46090;SDS011;31826;53.572;10.170;2024-03-02T13:41:46;14.75;;;6.55;;
46090;SDS011;31826;53.572;10.170;2024-03-02T13:44:18;14.80;;;6.63;;
46090;SDS011;31826;53.572;10.170;2024-03-02T13:46:44;11.82;;;5.88;;
46090;SDS011;31826;53.572;10.170;2024-03-02T13:49:11;15.68;;;6.50;;
46090;SDS011;31826;53.572;10.170;2024-03-02T13:51:37;13.60;;;6.03;;
46090;SDS011;31826;53.572;10.170;2024-03-02T13:54:03;14.27;;;6.27;;
46090;SDS011;31826;53.572;10.170;2024-03-02T13:56:29;13.17;;;6.30;;
46090;SDS011;31826;53.572;10.170;2024-03-02T13:58:55;14.20;;;7.05;;
46090;SDS011;31826;53.572;10.170;2024-03-02T14:01:21;14.65;;;6.50;;
46090;SDS011;31826;53.572;10.170;2024-03-02T14:03:47;12.80;;;6.25;;
46090;SDS011;31826;53.572;10.170;2024-03-02T14:06:12;14.82;;;6.53;;
46090;SDS011;31826;53.572;10.170;2024-03-02T14:08:38;14.55;;;6.32;;
46090;SDS011;31826;53.572;10.170;2024-03-02T14:11:04;13.05;;;6.10;;
46090;SDS011;31826;53.572;10.170;2024-03-02T14:13:30;13.75;;;6.22;;
46090;SDS011;31826;53.572;10.170;2024-03-02T14:15:56;14.30;;;6.43;;
46090;SDS011;31826;53.572;10.170;2024-03-02T14:18:23;12.48;;;6.00;;
46090;SDS011;31826;53.572;10.170;2024-03-02T14:20:48;15.57;;;6.78;;